createdAt,value
2023-01-28T00:01:41.421Z,98.46
2023-01-28T00:04:09.259Z,97.86
2023-01-28T00:06:36.674Z,97.83
2023-01-28T00:09:04.374Z,97.98
2023-01-28T00:11:32.272Z,98.48
2023-01-28T00:14:00.033Z,97.96
2023-01-28T00:16:28.049Z,98.08
2023-01-28T00:18:56.025Z,98.15
2023-01-28T00:21:23.547Z,98.49
2023-01-28T00:23:55.040Z,98.07
2023-01-28T00:26:25.212Z,97.94
2023-01-28T00:28:52.652Z,98.22
2023-01-28T00:31:22.919Z,97.80
2023-01-28T00:33:52.048Z,97.62
2023-01-28T00:36:21.041Z,98.04
2023-01-28T00:38:53.540Z,97.64
2023-01-28T00:41:23.145Z,98.38
2023-01-28T00:43:52.439Z,98.17
2023-01-28T00:46:21.871Z,97.74
2023-01-28T00:48:50.053Z,98.04
2023-01-28T00:51:19.836Z,97.97
2023-01-28T00:53:47.891Z,97.68
2023-01-28T00:56:17.922Z,97.77
2023-01-28T00:58:45.710Z,97.58
2023-01-28T01:01:19.221Z,98.32
2023-01-28T01:03:47.232Z,98.01
2023-01-28T01:06:16.229Z,98.37
2023-01-28T01:08:50.194Z,98.53
2023-01-28T01:11:19.350Z,98.47
2023-01-28T01:14:00.084Z,99.27
2023-01-28T01:16:30.223Z,98.99
2023-01-28T01:18:57.982Z,99.33
2023-01-28T01:21:27.880Z,100.00
2023-01-28T01:23:56.104Z,100.00
2023-01-28T01:26:24.114Z,100.00
2023-01-28T01:28:52.218Z,100.00
2023-01-28T01:31:22.143Z,100.00
2023-01-28T01:33:50.912Z,100.00
2023-01-28T01:36:21.761Z,100.00
2023-01-28T01:38:55.131Z,100.00
2023-01-28T01:41:31.676Z,100.00
2023-01-28T01:44:02.113Z,100.00
2023-01-28T01:46:40.386Z,100.00
2023-01-28T01:49:27.167Z,100.00
2023-01-28T01:52:01.936Z,100.00
2023-01-28T01:54:32.030Z,100.00
2023-01-28T01:57:00.762Z,100.00
2023-01-28T01:59:31.672Z,100.00
2023-01-28T02:02:03.476Z,100.00
2023-01-28T02:04:35.640Z,100.00
2023-01-28T02:07:03.499Z,100.00
2023-01-28T02:09:35.850Z,100.00
2023-01-28T02:12:17.693Z,100.00
2023-01-28T02:14:54.415Z,100.00
2023-01-28T02:17:22.752Z,100.00
2023-01-28T02:19:56.175Z,100.00
2023-01-28T02:22:41.728Z,100.00
2023-01-28T02:25:33.449Z,100.00
2023-01-28T02:28:16.536Z,100.00
2023-01-28T02:31:09.129Z,100.00
2023-01-28T02:33:43.163Z,100.00
2023-01-28T02:36:36.215Z,100.00
2023-01-28T02:39:12.233Z,100.00
2023-01-28T02:41:49.502Z,100.00
2023-01-28T02:44:17.462Z,100.00
2023-01-28T02:47:03.495Z,100.00
2023-01-28T02:49:43.636Z,100.00
2023-01-28T02:52:51.586Z,100.00
2023-01-28T02:55:35.459Z,100.00
2023-01-28T02:58:24.763Z,100.00
2023-01-28T03:01:20.399Z,100.00
2023-01-28T03:03:57.994Z,100.00
2023-01-28T03:06:40.911Z,100.00
2023-01-28T03:09:24.369Z,100.00
2023-01-28T03:12:23.149Z,100.00
2023-01-28T03:15:14.711Z,100.00
2023-01-28T03:18:14.119Z,100.00
2023-01-28T03:21:15.750Z,100.00
2023-01-28T03:24:28.011Z,100.00
2023-01-28T03:27:31.370Z,100.00
2023-01-28T03:30:22.374Z,100.00
2023-01-28T03:33:09.233Z,100.00
2023-01-28T03:35:56.990Z,100.00
2023-01-28T03:38:34.003Z,100.00
2023-01-28T03:41:04.000Z,100.00
2023-01-28T03:43:32.218Z,100.00
2023-01-28T03:46:00.051Z,100.00
2023-01-28T03:48:29.019Z,100.00
2023-01-28T03:50:56.695Z,100.00
2023-01-28T03:53:24.964Z,100.00
2023-01-28T03:55:54.446Z,100.00
2023-01-28T03:58:27.275Z,100.00
2023-01-28T04:00:55.147Z,100.00
2023-01-28T04:03:22.880Z,100.00
2023-01-28T04:06:03.610Z,100.00
2023-01-28T04:08:33.086Z,100.00
2023-01-28T04:11:15.663Z,100.00
2023-01-28T04:13:44.546Z,100.00
2023-01-28T04:16:14.760Z,100.00
2023-01-28T04:18:43.553Z,100.00
2023-01-28T04:21:12.557Z,100.00
2023-01-28T04:23:40.312Z,100.00
2023-01-28T04:26:08.573Z,100.00
2023-01-28T04:28:36.456Z,100.00
2023-01-28T04:31:04.335Z,100.00
2023-01-28T04:33:32.452Z,100.00
2023-01-28T04:36:00.980Z,100.00
2023-01-28T04:38:29.749Z,100.00
2023-01-28T04:40:57.397Z,100.00
2023-01-28T04:43:25.276Z,100.00
2023-01-28T04:45:53.989Z,100.00
2023-01-28T04:48:21.583Z,100.00
2023-01-28T04:50:51.883Z,100.00
2023-01-28T04:53:19.382Z,100.00
2023-01-28T04:55:46.958Z,100.00
2023-01-28T04:58:15.056Z,100.00
2023-01-28T05:00:43.077Z,100.00
2023-01-28T05:03:10.594Z,100.00
2023-01-28T05:05:38.417Z,100.00
2023-01-28T05:08:06.709Z,100.00
2023-01-28T05:10:34.490Z,100.00
2023-01-28T05:13:02.349Z,100.00
2023-01-28T05:15:29.819Z,100.00
2023-01-28T05:17:57.880Z,100.00
2023-01-28T05:20:26.383Z,100.00
2023-01-28T05:22:54.499Z,100.00
2023-01-28T05:25:22.481Z,100.00
2023-01-28T05:27:52.037Z,100.00
2023-01-28T05:30:21.126Z,100.00
2023-01-28T05:32:49.963Z,100.00
2023-01-28T05:35:18.461Z,100.00
2023-01-28T05:37:46.214Z,100.00
2023-01-28T05:40:14.653Z,100.00
2023-01-28T05:42:43.138Z,100.00
2023-01-28T05:45:12.255Z,100.00
2023-01-28T05:47:40.580Z,100.00
2023-01-28T05:50:13.954Z,100.00
2023-01-28T05:52:44.040Z,100.00
2023-01-28T05:55:12.906Z,100.00
2023-01-28T05:57:40.417Z,100.00
2023-01-28T06:00:09.048Z,100.00
2023-01-28T06:02:43.294Z,100.00
2023-01-28T06:05:11.620Z,100.00
2023-01-28T06:07:40.069Z,100.00
2023-01-28T06:10:08.713Z,100.00
2023-01-28T06:12:36.811Z,100.00
2023-01-28T06:15:07.056Z,100.00
2023-01-28T06:17:35.226Z,100.00
2023-01-28T06:20:03.886Z,100.00
2023-01-28T06:22:31.999Z,100.00
2023-01-28T06:25:00.545Z,100.00
2023-01-28T06:27:28.363Z,100.00
2023-01-28T06:29:56.123Z,100.00
2023-01-28T06:32:23.724Z,100.00
2023-01-28T06:34:52.438Z,100.00
2023-01-28T06:37:20.313Z,100.00
2023-01-28T06:39:48.658Z,100.00
2023-01-28T06:42:16.570Z,100.00
2023-01-28T06:44:44.593Z,100.00
2023-01-28T06:47:12.119Z,100.00
2023-01-28T06:49:39.949Z,100.00
2023-01-28T06:52:07.492Z,100.00
2023-01-28T06:54:34.984Z,100.00
2023-01-28T06:57:02.765Z,100.00
2023-01-28T06:59:30.242Z,100.00
2023-01-28T07:01:58.032Z,100.00
2023-01-28T07:04:25.732Z,100.00
2023-01-28T07:06:53.113Z,100.00
2023-01-28T07:09:20.535Z,100.00
2023-01-28T07:11:48.421Z,100.00
2023-01-28T07:14:15.891Z,100.00
2023-01-28T07:16:43.403Z,100.00
2023-01-28T07:19:11.187Z,100.00
2023-01-28T07:21:38.749Z,100.00
2023-01-28T07:24:06.494Z,100.00
2023-01-28T07:26:34.395Z,100.00
2023-01-28T07:29:01.841Z,100.00
2023-01-28T07:31:29.380Z,100.00
2023-01-28T07:33:57.382Z,100.00
2023-01-28T07:36:24.948Z,100.00
2023-01-28T07:38:52.441Z,100.00
2023-01-28T07:41:20.591Z,100.00
2023-01-28T07:43:48.095Z,100.00
2023-01-28T07:46:15.518Z,100.00
2023-01-28T07:48:43.194Z,100.00
2023-01-28T07:51:10.637Z,100.00
2023-01-28T07:53:38.348Z,100.00
2023-01-28T07:56:06.345Z,100.00
2023-01-28T07:58:34.736Z,100.00
2023-01-28T08:01:02.738Z,100.00
2023-01-28T08:03:30.529Z,100.00
2023-01-28T08:05:58.061Z,100.00
2023-01-28T08:08:27.448Z,100.00
2023-01-28T08:10:55.266Z,100.00
2023-01-28T08:13:22.820Z,100.00
2023-01-28T08:15:54.958Z,100.00
2023-01-28T08:18:22.878Z,100.00
2023-01-28T08:20:55.700Z,100.00
2023-01-28T08:23:24.578Z,100.00
2023-01-28T08:25:53.316Z,100.00
2023-01-28T08:28:21.809Z,99.77
2023-01-28T08:30:49.700Z,100.00
2023-01-28T08:33:18.252Z,100.00
2023-01-28T08:35:46.537Z,99.28
2023-01-28T08:38:18.000Z,99.91
2023-01-28T08:40:45.741Z,99.19
2023-01-28T08:43:13.473Z,100.00
2023-01-28T08:45:41.601Z,100.00
2023-01-28T08:48:15.038Z,100.00
2023-01-28T08:50:43.619Z,99.11
2023-01-28T08:53:14.013Z,99.12
2023-01-28T08:55:41.788Z,98.17
2023-01-28T08:58:17.859Z,98.86
2023-01-28T09:00:45.717Z,97.96
2023-01-28T09:03:14.220Z,97.48
2023-01-28T09:05:41.880Z,98.02
2023-01-28T09:08:15.035Z,97.67
2023-01-28T09:10:42.896Z,96.99
2023-01-28T09:13:14.049Z,96.80
2023-01-28T09:15:42.875Z,97.09
2023-01-28T09:18:10.918Z,95.74
2023-01-28T09:20:38.665Z,96.16
2023-01-28T09:23:06.800Z,96.06
2023-01-28T09:25:36.182Z,97.04
2023-01-28T09:28:04.546Z,97.02
2023-01-28T09:30:35.348Z,95.70
2023-01-28T09:33:03.935Z,96.60
2023-01-28T09:35:31.683Z,96.66
2023-01-28T09:38:00.223Z,96.47
2023-01-28T09:40:28.109Z,97.92
2023-01-28T09:43:13.500Z,97.77
2023-01-28T09:45:48.097Z,97.68
2023-01-28T09:48:41.583Z,98.00
2023-01-28T09:51:31.098Z,97.17
2023-01-28T09:54:04.833Z,96.15
2023-01-28T09:56:41.038Z,95.00
2023-01-28T09:59:29.531Z,95.82
2023-01-28T10:02:18.750Z,95.45
2023-01-28T10:05:03.436Z,96.48
2023-01-28T10:07:42.970Z,97.18
2023-01-28T10:10:19.966Z,95.69
2023-01-28T10:13:15.450Z,96.08
2023-01-28T10:15:45.845Z,94.99
2023-01-28T10:18:18.515Z,95.65
2023-01-28T10:20:55.370Z,96.06
2023-01-28T10:23:32.280Z,95.28
2023-01-28T10:26:05.089Z,94.33
2023-01-28T10:28:35.019Z,95.05
2023-01-28T10:31:02.807Z,94.61
2023-01-28T10:33:37.816Z,94.03
2023-01-28T10:36:07.692Z,94.33
2023-01-28T10:38:36.139Z,93.15
2023-01-28T10:41:06.771Z,92.14
2023-01-28T10:43:39.389Z,93.01
2023-01-28T10:46:15.548Z,92.12
2023-01-28T10:48:52.803Z,92.76
2023-01-28T10:51:34.525Z,92.92
2023-01-28T10:54:02.686Z,93.00
2023-01-28T10:56:36.009Z,92.95
2023-01-28T10:59:06.395Z,92.11
2023-01-28T11:01:48.149Z,93.72
2023-01-28T11:04:25.237Z,92.99
2023-01-28T11:07:00.196Z,93.12
2023-01-28T11:09:38.196Z,92.30
2023-01-28T11:12:22.736Z,91.20
2023-01-28T11:14:52.318Z,91.80
2023-01-28T11:17:24.645Z,92.80
2023-01-28T11:19:59.468Z,91.83
2023-01-28T11:22:42.438Z,92.19
2023-01-28T11:25:36.441Z,92.46
2023-01-28T11:28:18.737Z,92.12
2023-01-28T11:30:52.477Z,92.55
2023-01-28T11:33:32.107Z,92.12
2023-01-28T11:36:07.876Z,91.19
2023-01-28T11:38:35.399Z,91.10
2023-01-28T11:41:03.202Z,91.08
2023-01-28T11:43:31.768Z,91.11
2023-01-28T11:46:25.685Z,91.63
2023-01-28T11:49:05.682Z,91.11
2023-01-28T11:51:44.052Z,89.99
2023-01-28T11:54:42.775Z,91.37
2023-01-28T11:57:31.999Z,90.28
2023-01-28T12:00:22.150Z,91.10
2023-01-28T12:03:25.134Z,91.43
2023-01-28T12:05:56.965Z,91.21
2023-01-28T12:08:30.405Z,91.79
2023-01-28T12:11:42.718Z,90.50
2023-01-28T12:14:40.934Z,91.64
2023-01-28T12:17:57.602Z,90.87
2023-01-28T12:20:35.319Z,91.09
2023-01-28T12:23:23.646Z,92.08
2023-01-28T12:26:11.911Z,92.13
2023-01-28T12:29:07.344Z,91.26
2023-01-28T12:31:41.348Z,91.84
2023-01-28T12:34:35.202Z,92.95
2023-01-28T12:37:20.909Z,91.43
2023-01-28T12:40:19.401Z,91.44
2023-01-28T12:43:03.534Z,90.73
2023-01-28T12:45:40.647Z,91.61
2023-01-28T12:48:14.512Z,92.75
2023-01-28T12:50:51.125Z,92.34
2023-01-28T12:53:31.647Z,92.37
2023-01-28T12:56:08.697Z,92.54
2023-01-28T12:58:53.651Z,93.12
2023-01-28T13:01:35.027Z,92.82
2023-01-28T13:04:13.783Z,94.35
2023-01-28T13:07:15.540Z,94.56
2023-01-28T13:09:51.981Z,93.95
2023-01-28T13:12:22.088Z,94.05
2023-01-28T13:14:53.995Z,94.51
2023-01-28T13:17:28.192Z,94.83
2023-01-28T13:19:56.915Z,94.62
2023-01-28T13:22:30.557Z,94.66
2023-01-28T13:25:22.056Z,94.64
2023-01-28T13:28:02.065Z,94.62
2023-01-28T13:30:33.026Z,94.09
2023-01-28T13:33:06.600Z,94.66
2023-01-28T13:35:39.713Z,94.97
2023-01-28T13:38:18.057Z,93.53
2023-01-28T13:41:06.364Z,94.28
2023-01-28T13:43:33.756Z,94.65
2023-01-28T13:46:09.369Z,95.20
2023-01-28T13:48:39.785Z,94.33
2023-01-28T13:51:20.754Z,95.88
2023-01-28T13:54:14.123Z,96.36
2023-01-28T13:57:02.788Z,95.80
2023-01-28T14:00:02.933Z,95.47
2023-01-28T14:02:51.903Z,95.31
2023-01-28T14:05:41.835Z,95.60
2023-01-28T14:08:24.825Z,95.14
2023-01-28T14:11:13.768Z,95.44
2023-01-28T14:13:41.194Z,94.85
2023-01-28T14:16:27.139Z,96.03
2023-01-28T14:18:59.588Z,96.22
2023-01-28T14:21:28.540Z,96.41
2023-01-28T14:23:57.759Z,96.84
2023-01-28T14:26:51.619Z,96.84
2023-01-28T14:29:43.262Z,97.49
2023-01-28T14:32:21.786Z,96.99
2023-01-28T14:34:49.878Z,96.45
2023-01-28T14:37:21.058Z,96.18
2023-01-28T14:39:52.896Z,96.61
2023-01-28T14:42:26.367Z,96.75
2023-01-28T14:45:09.389Z,96.33
2023-01-28T14:48:04.395Z,96.15
2023-01-28T14:50:54.312Z,95.84
2023-01-28T14:53:34.158Z,96.66
2023-01-28T14:56:31.960Z,96.19
2023-01-28T14:59:22.152Z,96.56
2023-01-28T15:01:55.798Z,95.87
2023-01-28T15:04:25.468Z,95.85
2023-01-28T15:06:53.456Z,95.81
2023-01-28T15:09:21.739Z,96.53
2023-01-28T15:11:54.068Z,96.24
2023-01-28T15:14:32.481Z,96.52
2023-01-28T15:17:00.925Z,96.34
2023-01-28T15:19:35.273Z,96.39
2023-01-28T15:22:06.186Z,95.74
2023-01-28T15:24:35.876Z,96.26
2023-01-28T15:27:03.936Z,95.64
2023-01-28T15:29:35.414Z,95.68
2023-01-28T15:32:04.675Z,96.34
2023-01-28T15:34:32.283Z,96.33
2023-01-28T15:37:00.711Z,96.72
2023-01-28T15:39:29.854Z,96.94
2023-01-28T15:42:01.403Z,96.72
2023-01-28T15:44:33.472Z,97.08
2023-01-28T15:47:03.033Z,97.16
2023-01-28T15:49:45.130Z,96.33
2023-01-28T15:52:13.245Z,96.11
2023-01-28T15:54:44.066Z,96.34
2023-01-28T15:57:32.417Z,96.48
2023-01-28T16:00:12.272Z,96.88
2023-01-28T16:02:46.717Z,96.94
2023-01-28T16:05:26.344Z,98.09
2023-01-28T16:07:55.963Z,97.47
2023-01-28T16:10:29.594Z,97.46
2023-01-28T16:13:19.808Z,98.27
2023-01-28T16:15:50.229Z,97.81
2023-01-28T16:18:51.681Z,98.42
2023-01-28T16:21:28.907Z,99.11
2023-01-28T16:24:05.827Z,98.99
2023-01-28T16:26:35.430Z,98.78
2023-01-28T16:29:15.430Z,98.13
2023-01-28T16:31:42.978Z,98.67
2023-01-28T16:34:11.781Z,98.64
2023-01-28T16:36:39.273Z,99.75
2023-01-28T16:39:06.957Z,99.10
2023-01-28T16:41:40.750Z,98.90
2023-01-28T16:44:13.817Z,98.99
2023-01-28T16:46:42.223Z,99.80
2023-01-28T16:49:10.635Z,99.72
2023-01-28T16:51:40.799Z,99.93
2023-01-28T16:54:13.637Z,99.95
2023-01-28T16:56:45.608Z,99.74
2023-01-28T16:59:15.893Z,100.00
2023-01-28T17:01:44.723Z,100.00
2023-01-28T17:04:13.372Z,100.00
2023-01-28T17:06:44.330Z,100.00
2023-01-28T17:09:14.197Z,100.00
2023-01-28T17:11:42.206Z,100.00
2023-01-28T17:14:11.327Z,100.00
2023-01-28T17:16:39.040Z,100.00
2023-01-28T17:19:07.151Z,100.00
2023-01-28T17:21:34.918Z,100.00
2023-01-28T17:24:03.275Z,100.00
2023-01-28T17:26:31.479Z,100.00
2023-01-28T17:28:59.308Z,100.00
2023-01-28T17:31:27.604Z,100.00
2023-01-28T17:33:58.279Z,100.00
2023-01-28T17:36:26.572Z,100.00
2023-01-28T17:38:55.304Z,100.00
2023-01-28T17:41:23.224Z,100.00
2023-01-28T17:43:51.728Z,100.00
2023-01-28T17:46:20.705Z,100.00
2023-01-28T17:48:48.549Z,100.00
2023-01-28T17:51:19.739Z,100.00
2023-01-28T17:53:48.551Z,100.00
2023-01-28T17:56:24.337Z,100.00
2023-01-28T17:58:54.028Z,100.00
2023-01-28T18:01:23.634Z,100.00
2023-01-28T18:03:52.444Z,100.00
2023-01-28T18:06:20.069Z,100.00
2023-01-28T18:08:48.341Z,100.00
2023-01-28T18:11:18.641Z,100.00
2023-01-28T18:13:47.152Z,100.00
2023-01-28T18:16:18.115Z,100.00
2023-01-28T18:18:46.758Z,100.00
2023-01-28T18:21:42.941Z,100.00
2023-01-28T18:24:18.872Z,100.00
2023-01-28T18:26:46.373Z,100.00
2023-01-28T18:29:17.018Z,100.00
2023-01-28T18:31:45.089Z,100.00
2023-01-28T18:34:12.560Z,100.00
2023-01-28T18:36:40.226Z,100.00
2023-01-28T18:39:14.018Z,100.00
2023-01-28T18:41:42.020Z,100.00
2023-01-28T18:44:11.859Z,100.00
2023-01-28T18:46:39.632Z,100.00
2023-01-28T18:49:07.301Z,100.00
2023-01-28T18:51:35.176Z,100.00
2023-01-28T18:54:05.244Z,100.00
2023-01-28T18:56:33.739Z,100.00
2023-01-28T18:59:05.301Z,100.00
2023-01-28T19:01:34.985Z,100.00
2023-01-28T19:04:03.248Z,100.00
2023-01-28T19:06:31.241Z,100.00
2023-01-28T19:09:02.242Z,100.00
2023-01-28T19:11:30.884Z,100.00
2023-01-28T19:13:58.854Z,100.00
2023-01-28T19:16:26.612Z,100.00
2023-01-28T19:18:57.960Z,100.00
2023-01-28T19:21:26.572Z,100.00
2023-01-28T19:24:00.480Z,100.00
2023-01-28T19:26:30.036Z,100.00
2023-01-28T19:28:59.062Z,100.00
2023-01-28T19:31:27.546Z,100.00
2023-01-28T19:33:58.180Z,100.00
2023-01-28T19:36:28.764Z,100.00
2023-01-28T19:39:01.500Z,100.00
2023-01-28T19:41:29.842Z,100.00
2023-01-28T19:43:58.853Z,100.00
2023-01-28T19:46:26.513Z,100.00
2023-01-28T19:48:54.960Z,100.00
2023-01-28T19:51:23.888Z,100.00
2023-01-28T19:53:53.308Z,100.00
2023-01-28T19:56:23.601Z,100.00
2023-01-28T19:58:54.816Z,100.00
2023-01-28T20:01:27.284Z,100.00
2023-01-28T20:03:59.362Z,100.00
2023-01-28T20:06:29.601Z,100.00
2023-01-28T20:09:07.687Z,100.00
2023-01-28T20:11:36.011Z,100.00
2023-01-28T20:14:03.848Z,100.00
2023-01-28T20:16:34.677Z,100.00
2023-01-28T20:19:07.762Z,100.00
2023-01-28T20:21:36.318Z,100.00
2023-01-28T20:24:04.840Z,100.00
2023-01-28T20:26:35.519Z,100.00
2023-01-28T20:29:15.107Z,100.00
2023-01-28T20:31:43.411Z,100.00
2023-01-28T20:34:19.884Z,100.00
2023-01-28T20:36:47.319Z,100.00
2023-01-28T20:39:15.216Z,100.00
2023-01-28T20:41:42.946Z,100.00
2023-01-28T20:44:10.607Z,100.00
2023-01-28T20:46:39.019Z,100.00
2023-01-28T20:49:06.828Z,100.00
2023-01-28T20:51:36.128Z,100.00
2023-01-28T20:54:05.046Z,100.00
2023-01-28T20:56:32.845Z,100.00
2023-01-28T20:59:03.406Z,100.00
2023-01-28T21:01:34.145Z,100.00
2023-01-28T21:04:01.918Z,100.00
2023-01-28T21:06:30.121Z,100.00
2023-01-28T21:08:58.521Z,100.00
2023-01-28T21:11:27.183Z,100.00
2023-01-28T21:13:55.202Z,100.00
2023-01-28T21:16:23.996Z,100.00
2023-01-28T21:18:52.007Z,100.00
2023-01-28T21:21:25.853Z,100.00
2023-01-28T21:23:57.730Z,100.00
2023-01-28T21:26:26.206Z,100.00
2023-01-28T21:28:56.036Z,100.00
2023-01-28T21:31:26.352Z,100.00
2023-01-28T21:33:56.408Z,100.00
2023-01-28T21:36:25.421Z,100.00
2023-01-28T21:38:58.234Z,100.00
2023-01-28T21:41:27.042Z,100.00
2023-01-28T21:43:57.241Z,100.00
2023-01-28T21:46:29.725Z,100.00
2023-01-28T21:49:02.308Z,100.00
2023-01-28T21:51:36.170Z,100.00
2023-01-28T21:54:05.911Z,100.00
2023-01-28T21:56:33.496Z,100.00
2023-01-28T21:59:19.958Z,100.00
2023-01-28T22:01:48.022Z,100.00
2023-01-28T22:04:16.361Z,100.00
2023-01-28T22:06:45.147Z,100.00
2023-01-28T22:09:13.683Z,100.00
2023-01-28T22:11:43.668Z,100.00
2023-01-28T22:14:12.295Z,100.00
2023-01-28T22:16:40.299Z,100.00
2023-01-28T22:19:08.388Z,100.00
2023-01-28T22:21:41.004Z,100.00
2023-01-28T22:24:17.778Z,100.00
2023-01-28T22:26:46.971Z,100.00
2023-01-28T22:29:16.437Z,100.00
2023-01-28T22:31:48.750Z,100.00
2023-01-28T22:34:16.854Z,100.00
2023-01-28T22:36:44.579Z,100.00
2023-01-28T22:39:15.253Z,100.00
2023-01-28T22:41:44.881Z,100.00
2023-01-28T22:44:12.658Z,100.00
2023-01-28T22:46:40.173Z,100.00
2023-01-28T22:49:08.032Z,100.00
2023-01-28T22:51:36.217Z,100.00
2023-01-28T22:54:04.151Z,100.00
2023-01-28T22:56:32.340Z,100.00
2023-01-28T22:59:02.652Z,100.00
2023-01-28T23:01:31.180Z,100.00
2023-01-28T23:03:59.099Z,100.00
2023-01-28T23:06:27.556Z,100.00
2023-01-28T23:08:56.416Z,100.00
2023-01-28T23:11:25.539Z,100.00
2023-01-28T23:14:18.207Z,100.00
2023-01-28T23:17:05.007Z,100.00
2023-01-28T23:19:51.894Z,100.00
2023-01-28T23:22:45.402Z,100.00
2023-01-28T23:25:13.798Z,100.00
2023-01-28T23:27:42.376Z,100.00
2023-01-28T23:30:11.662Z,100.00
2023-01-28T23:32:47.172Z,100.00
2023-01-28T23:35:16.017Z,100.00
2023-01-28T23:37:43.713Z,100.00
2023-01-28T23:40:12.549Z,100.00
2023-01-28T23:42:41.902Z,100.00
2023-01-28T23:45:10.403Z,100.00
2023-01-28T23:47:37.932Z,100.00
2023-01-28T23:50:06.482Z,100.00
2023-01-28T23:52:34.559Z,100.00
2023-01-28T23:55:02.295Z,100.00
2023-01-28T23:57:30.276Z,100.00
2023-01-28T23:59:57.977Z,100.00
